Detall de PIREP

Printer-friendly versionPDF version

[2015/02/04 09:25:00]
Flight IATA:CT1005
Pilot Number:011
Company ICAO:CAT
Aircraft Type:B738/F
PAX:160
Departing Airport: LFMP
Destination Airport: LGAV
Alternate Airport:LGTS
Online: VATSIM
Route:FJR UL127 SODRI UM728 KISTO UQ160 MEDAL UM729 PNZ UM603 SOR UM736 CRN UM601 RUTOM UN604 ARA UB34 NEMES
Flight Level:F370
No Slew and time accel
No pause
Crash detect
Detect pilot in Cockpit between each 30 and 45 minutes
09:25 Zero fuel Weight: 134991 Lbs, Fuel Weight: 25899 Lbs
09:25 VATSIM:LFMP 040900Z AUTO 31018KT 9999 NSC 04/M03 Q1002
09:25 VATSIM:LGAV 040850Z 20012KT 9999 FEW025 BKN070 14/07 Q1016 NOSIG
09:33 Parking Brakes off
09:42 Take-off
09:42 Take off Weight: 160096 Lbs
09:42 Wind: 312º @ 018 Knots Heading: 325º
09:42 POS N42º 45´ 24´´ E002º 51´ 32´´
09:42 Flaps:5 at 203 Knots
09:42 Gear Up: 208 Knots
09:43 Flaps:4 at 241 Knots
09:43 Flaps:3 at 248 Knots
09:44 Flaps:2 at 247 Knots
09:44 Flaps:0 at 246 Knots
09:57 Wind:312º@016 Knots Heading: 054º Ground Speed: 382 Knots Altitude 28937 ft
10:02 TOC
10:02 Fuel Weight: 21415 Lb
10:12 Wind:359º@036 Knots Heading: 086º Ground Speed: 453 Knots Altitude 36568 ft
10:27 Wind:341º@014 Knots Heading: 119º Ground Speed: 465 Knots Altitude 36561 ft
10:42 Wind:214º@038 Knots Heading: 115º Ground Speed: 467 Knots Altitude 36499 ft
10:57 Wind:206º@013 Knots Heading: 107º Ground Speed: 449 Knots Altitude 36699 ft
11:12 Wind:240º@032 Knots Heading: 130º Ground Speed: 467 Knots Altitude 36738 ft
11:27 Wind:210º@087 Knots Heading: 117º Ground Speed: 454 Knots Altitude 36804 ft
11:42 Wind:175º@049 Knots Heading: 107º Ground Speed: 440 Knots Altitude 36945 ft
11:57 Wind:169º@057 Knots Heading: 120º Ground Speed: 417 Knots Altitude 36994 ft
12:00 TOD
12:00 Fuel Weight: 11965 Lb
12:12 Wind:197º@044 Knots Heading: 087º Ground Speed: 385 Knots Altitude 14832 ft
12:20 Flaps:1 at 250 Knots
12:20 Flaps:2 at 249 Knots
12:21 Flaps:3 at 231 Knots
12:21 Flaps:4 at 227 Knots
12:21 Flaps:5 at 198 Knots
12:22 Flaps:6 at 180 Knots
12:22 Gear Down: 178 Knots
12:22 Flaps:7 at 164 Knots
12:24 Flaps:8 at 146 Knots
12:27 Wind:197º@018 Knots Heading: 214º Ground Speed: 129 Knots Altitude 439 ft
12:27 TouchDown:Rate -164 ft/min Speed: 136 Knots
12:27 VATSIM:LGAV 041150Z 20018KT 9999 FEW025 SCT070 16/08 Q1014 NOSIG
12:27 Land
12:27 Wind:197º@018 Knots
12:27 Heading: 215º
12:27 Flight Duration: 02:45
12:27 Landing Weight: 145509 Lbs
12:27 POS N37º 56´ 28´´ E023º 57´ 36´´
12:30 Parking brakes on
12:30 Block to Block Duration: 02:57
12:30 Final Fuel: 10271 Lbls
12:30 Spent Fuel: 15628 Lbls
12:30 Flight Length: 1031 NM
12:30 TOD Land Length: 146 NM

Exportar CSV

Powered by Drupal - Modified by Danger4k